Time;durP1;ratioP1;P1;durP2;ratioP2;P2;SDS_P1;SDS_P2;PMS_P1;PMS_P2;Temp;Humidity;BMP_temperature;BMP_pressure;BME280_temperature;BME280_humidity;BME280_pressure;Samples;Min_cycle;Max_cycle;Signal;HPM_P1;HPM_P2
2024/02/15 00:01:12;;;;;;;26.73;18.70;;;;;;;;;;6262603;28;24450;-81
2024/02/15 00:04:13;;;;;;;25.38;18.17;;;;;;;;;;6264440;28;24426;-80
2024/02/15 00:07:15;;;;;;;28.27;18.95;;;;;;;;;;6263488;28;24779;-80
2024/02/15 00:10:18;;;;;;;27.60;18.63;;;;;;;;;;6263150;28;24423;-81
2024/02/15 00:13:19;;;;;;;28.25;18.50;;;;;;;;;;6261669;28;24759;-81
2024/02/15 00:16:21;;;;;;;26.45;18.05;;;;;;;;;;6265345;28;24458;-81
2024/02/15 00:19:23;;;;;;;26.17;18.48;;;;;;;;;;6264680;28;25087;-80
2024/02/15 00:22:24;;;;;;;27.85;18.55;;;;;;;;;;6267101;28;24465;-81
2024/02/15 00:25:27;;;;;;;28.83;19.52;;;;;;;;;;6264659;28;24439;-81
2024/02/15 00:28:28;;;;;;;25.90;18.30;;;;;;;;;;6265253;28;24415;-82
2024/02/15 00:31:30;;;;;;;28.80;19.05;;;;;;;;;;6261126;28;24414;-80
2024/02/15 00:34:31;;;;;;;28.08;19.42;;;;;;;;;;6259875;28;24430;-80
2024/02/15 00:37:32;;;;;;;29.83;19.05;;;;;;;;;;6263959;28;24414;-82
2024/02/15 00:40:35;;;;;;;30.33;19.30;;;;;;;;;;6263050;28;24416;-81
2024/02/15 00:43:37;;;;;;;30.02;19.67;;;;;;;;;;6265057;28;24404;-81
2024/02/15 00:46:38;;;;;;;31.97;19.53;;;;;;;;;;6261984;28;24425;-81
2024/02/15 00:49:40;;;;;;;29.02;19.48;;;;;;;;;;6264172;28;24408;-81
2024/02/15 00:52:41;;;;;;;31.52;19.58;;;;;;;;;;6266936;28;24607;-80
2024/02/15 00:55:44;;;;;;;29.45;19.67;;;;;;;;;;6262620;28;24411;-81
2024/02/15 00:58:45;;;;;;;28.45;19.25;;;;;;;;;;6265643;28;24487;-81
2024/02/15 01:01:48;;;;;;;31.27;19.83;;;;;;;;;;6264068;28;24408;-84
2024/02/15 01:04:50;;;;;;;30.25;19.95;;;;;;;;;;6264735;28;24434;-82
2024/02/15 01:07:51;;;;;;;29.30;20.33;;;;;;;;;;6262492;28;24526;-81
2024/02/15 01:10:54;;;;;;;32.38;19.08;;;;;;;;;;6264248;28;24837;-81
2024/02/15 01:13:56;;;;;;;28.90;19.50;;;;;;;;;;6262855;28;24423;-82
2024/02/15 01:16:57;;;;;;;27.50;19.00;;;;;;;;;;6263875;28;24428;-80
2024/02/15 01:19:59;;;;;;;28.52;19.23;;;;;;;;;;6264339;28;24644;-80
2024/02/15 01:23:00;;;;;;;29.80;19.63;;;;;;;;;;6263960;28;24435;-81
2024/02/15 01:26:04;;;;;;;30.77;19.27;;;;;;;;;;6265986;28;24592;-80
2024/02/15 01:29:06;;;;;;;28.53;18.67;;;;;;;;;;6263795;28;24431;-80
2024/02/15 01:32:07;;;;;;;29.38;19.35;;;;;;;;;;6264614;28;24418;-80
2024/02/15 01:35:09;;;;;;;30.35;19.80;;;;;;;;;;6261521;28;24420;-82
2024/02/15 01:38:11;;;;;;;31.13;20.27;;;;;;;;;;6263715;28;24414;-82
2024/02/15 01:41:14;;;;;;;28.17;18.70;;;;;;;;;;6264743;28;24426;-81
2024/02/15 01:44:15;;;;;;;29.05;19.70;;;;;;;;;;6264783;28;24474;-81
2024/02/15 01:47:19;;;;;;;30.95;19.35;;;;;;;;;;6267938;28;24430;-80
2024/02/15 01:50:22;;;;;;;31.40;19.63;;;;;;;;;;6265474;28;24571;-81
2024/02/15 01:53:24;;;;;;;29.50;20.63;;;;;;;;;;6267650;28;24431;-81
2024/02/15 01:56:27;;;;;;;29.40;19.38;;;;;;;;;;6266347;28;24432;-82
2024/02/15 01:59:28;;;;;;;29.67;19.38;;;;;;;;;;6267856;28;25114;-80
2024/02/15 02:02:31;;;;;;;26.95;18.60;;;;;;;;;;6267031;28;24516;-82
2024/02/15 02:05:33;;;;;;;30.73;19.60;;;;;;;;;;6266123;28;24434;-80
2024/02/15 02:08:34;;;;;;;28.35;19.20;;;;;;;;;;6266556;28;24423;-82
2024/02/15 02:11:37;;;;;;;27.95;18.98;;;;;;;;;;6269972;28;24430;-81
2024/02/15 02:14:39;;;;;;;28.67;19.00;;;;;;;;;;6269655;28;24426;-81
2024/02/15 02:17:40;;;;;;;29.48;19.58;;;;;;;;;;6267529;28;24431;-82
2024/02/15 02:20:42;;;;;;;30.65;19.40;;;;;;;;;;6266404;28;24427;-81
2024/02/15 02:23:43;;;;;;;28.65;18.83;;;;;;;;;;6263488;28;24431;-81
2024/02/15 02:26:46;;;;;;;30.25;19.90;;;;;;;;;;6262878;28;24806;-81
2024/02/15 02:29:48;;;;;;;29.05;19.15;;;;;;;;;;6269317;28;24415;-81
2024/02/15 02:32:49;;;;;;;29.55;19.20;;;;;;;;;;6264865;28;24530;-80
2024/02/15 02:35:51;;;;;;;29.35;18.90;;;;;;;;;;6266689;28;24415;-81
2024/02/15 02:38:52;;;;;;;27.27;18.60;;;;;;;;;;6267699;28;24474;-81
2024/02/15 02:41:55;;;;;;;27.50;18.95;;;;;;;;;;6269717;28;24434;-81
2024/02/15 02:44:56;;;;;;;27.67;18.75;;;;;;;;;;6270276;28;24658;-82
2024/02/15 02:47:58;;;;;;;28.95;19.08;;;;;;;;;;6267134;28;24435;-81
2024/02/15 02:50:59;;;;;;;28.70;18.75;;;;;;;;;;6268542;28;24434;-81
2024/02/15 02:54:05;;;;;;;28.20;19.05;;;;;;;;;;6267708;28;24585;-82
2024/02/15 02:57:08;;;;;;;29.30;19.30;;;;;;;;;;6268855;28;24554;-82
2024/02/15 03:00:12;;;;;;;29.50;19.17;;;;;;;;;;6270194;28;24427;-82
2024/02/15 03:03:14;;;;;;;28.67;18.55;;;;;;;;;;6268659;28;24477;-83
2024/02/15 03:06:15;;;;;;;28.60;18.15;;;;;;;;;;6269225;28;24971;-82
2024/02/15 03:09:17;;;;;;;25.25;17.50;;;;;;;;;;6264804;28;24450;-82
2024/02/15 03:12:19;;;;;;;26.90;17.67;;;;;;;;;;6266807;28;24424;-82
2024/02/15 03:15:21;;;;;;;25.70;18.42;;;;;;;;;;6265863;28;24592;-81
2024/02/15 03:18:23;;;;;;;27.40;17.80;;;;;;;;;;6266213;28;24901;-81
2024/02/15 03:21:24;;;;;;;27.15;17.77;;;;;;;;;;6266365;28;24435;-81
2024/02/15 03:24:26;;;;;;;27.38;17.65;;;;;;;;;;6266524;28;24434;-81
2024/02/15 03:27:29;;;;;;;27.88;17.95;;;;;;;;;;6265823;28;24420;-81
2024/02/15 03:30:31;;;;;;;27.53;17.60;;;;;;;;;;6266756;28;24730;-80
2024/02/15 03:33:34;;;;;;;24.83;16.92;;;;;;;;;;6266035;28;24439;-81
2024/02/15 03:36:36;;;;;;;28.23;17.20;;;;;;;;;;6263368;28;24451;-81
2024/02/15 03:39:38;;;;;;;24.15;16.17;;;;;;;;;;6265431;28;24478;-80
2024/02/15 03:42:41;;;;;;;27.77;18.08;;;;;;;;;;6266506;28;24489;-81
2024/02/15 03:45:44;;;;;;;25.98;18.13;;;;;;;;;;6266940;28;24449;-81
2024/02/15 03:48:46;;;;;;;25.85;17.08;;;;;;;;;;6265470;28;24455;-81
2024/02/15 03:51:49;;;;;;;27.83;17.98;;;;;;;;;;6268149;28;24874;-81
2024/02/15 03:54:50;;;;;;;26.93;18.33;;;;;;;;;;6267196;28;24435;-80
2024/02/15 03:57:55;;;;;;;25.65;17.83;;;;;;;;;;6265599;28;24439;-81
2024/02/15 04:00:56;;;;;;;25.13;17.20;;;;;;;;;;6263748;28;24943;-81
2024/02/15 04:03:58;;;;;;;25.40;17.30;;;;;;;;;;6265557;28;24424;-82
2024/02/15 04:06:59;;;;;;;24.98;16.98;;;;;;;;;;6265743;28;24432;-80
2024/02/15 04:10:01;;;;;;;24.45;16.67;;;;;;;;;;6264281;28;24658;-80
2024/02/15 04:13:04;;;;;;;25.90;17.48;;;;;;;;;;6263903;28;24876;-81
2024/02/15 04:16:06;;;;;;;28.25;17.38;;;;;;;;;;6265339;28;24423;-80
2024/02/15 04:19:07;;;;;;;27.13;17.83;;;;;;;;;;6266542;28;24441;-80
2024/02/15 04:22:09;;;;;;;28.87;17.17;;;;;;;;;;6264624;28;24450;-82
2024/02/15 04:25:10;;;;;;;24.70;16.92;;;;;;;;;;6268365;28;24951;-80
2024/02/15 04:28:13;;;;;;;26.20;17.37;;;;;;;;;;6263611;28;24456;-81
2024/02/15 04:31:15;;;;;;;24.58;16.67;;;;;;;;;;6264040;28;24416;-80
2024/02/15 04:34:16;;;;;;;25.88;17.15;;;;;;;;;;6266040;28;24443;-81
2024/02/15 04:37:18;;;;;;;27.30;17.27;;;;;;;;;;6268191;28;24470;-82
2024/02/15 04:40:19;;;;;;;24.60;17.27;;;;;;;;;;6266284;28;24416;-82
2024/02/15 04:43:22;;;;;;;28.33;18.42;;;;;;;;;;6263156;28;24836;-81
2024/02/15 04:46:24;;;;;;;26.30;16.42;;;;;;;;;;6263197;28;25034;-82
2024/02/15 04:49:27;;;;;;;24.55;16.77;;;;;;;;;;6269547;28;24415;-82
2024/02/15 04:52:29;;;;;;;26.90;18.17;;;;;;;;;;6266905;28;24437;-81
2024/02/15 04:55:32;;;;;;;27.20;17.23;;;;;;;;;;6262187;28;24416;-81
2024/02/15 04:58:36;;;;;;;26.95;17.67;;;;;;;;;;6262896;28;24620;-81
2024/02/15 05:01:37;;;;;;;27.52;17.33;;;;;;;;;;6263401;28;24426;-82
2024/02/15 05:04:42;;;;;;;26.50;17.33;;;;;;;;;;6263910;28;24605;-81
2024/02/15 05:07:43;;;;;;;26.95;18.08;;;;;;;;;;6265402;28;25095;-80
2024/02/15 05:10:45;;;;;;;28.17;19.37;;;;;;;;;;6265002;28;24415;-81
2024/02/15 05:13:50;;;;;;;27.40;19.05;;;;;;;;;;6262401;28;24491;-82
2024/02/15 05:16:51;;;;;;;27.02;18.33;;;;;;;;;;6263275;28;24451;-80
2024/02/15 05:19:53;;;;;;;29.02;18.70;;;;;;;;;;6265422;28;24861;-81
2024/02/15 05:22:54;;;;;;;28.95;18.75;;;;;;;;;;6267707;28;24418;-80
2024/02/15 05:25:56;;;;;;;29.40;18.30;;;;;;;;;;6270198;28;24427;-81
2024/02/15 05:28:59;;;;;;;26.87;17.87;;;;;;;;;;6269514;28;24958;-80
2024/02/15 05:32:01;;;;;;;29.08;18.10;;;;;;;;;;6267793;28;24523;-81
2024/02/15 05:35:03;;;;;;;26.08;17.65;;;;;;;;;;6265532;28;25019;-81
2024/02/15 05:38:06;;;;;;;24.52;17.20;;;;;;;;;;6267937;28;24422;-81
2024/02/15 05:41:08;;;;;;;26.58;17.52;;;;;;;;;;6274199;28;24646;-81
2024/02/15 05:44:11;;;;;;;24.03;15.93;;;;;;;;;;6270043;28;24438;-81
2024/02/15 05:47:12;;;;;;;26.45;17.10;;;;;;;;;;6269040;28;24452;-80
2024/02/15 05:50:15;;;;;;;24.60;16.42;;;;;;;;;;6270056;28;24746;-79
2024/02/15 05:53:17;;;;;;;25.10;16.40;;;;;;;;;;6272202;28;24415;-82
2024/02/15 05:56:18;;;;;;;25.38;16.92;;;;;;;;;;6266845;28;24828;-83
2024/02/15 05:59:22;;;;;;;26.20;16.05;;;;;;;;;;6268782;28;24427;-83
2024/02/15 06:02:23;;;;;;;27.67;17.50;;;;;;;;;;6270845;28;24802;-82
2024/02/15 06:05:25;;;;;;;25.23;16.42;;;;;;;;;;6266387;28;24811;-82
2024/02/15 06:08:26;;;;;;;24.40;15.80;;;;;;;;;;6268788;28;24431;-81
2024/02/15 06:11:28;;;;;;;23.73;15.40;;;;;;;;;;6270579;28;24427;-82
2024/02/15 06:14:32;;;;;;;22.58;14.93;;;;;;;;;;6264833;28;24635;-81
2024/02/15 06:17:34;;;;;;;22.93;14.93;;;;;;;;;;6270235;28;24688;-81
2024/02/15 06:20:35;;;;;;;22.45;15.38;;;;;;;;;;6269147;28;24430;-83
2024/02/15 06:23:37;;;;;;;23.98;14.90;;;;;;;;;;6269298;28;24870;-83
2024/02/15 06:26:38;;;;;;;22.73;15.40;;;;;;;;;;6267533;28;24439;-84
2024/02/15 06:39:45;;;;;;;19.57;13.33;;;;;;;;;;6266376;28;24411;-83
2024/02/15 06:42:46;;;;;;;18.27;12.48;;;;;;;;;;6268714;28;24450;-83
2024/02/15 06:45:51;;;;;;;19.40;13.10;;;;;;;;;;6266454;28;24419;-82
2024/02/15 06:48:52;;;;;;;18.35;12.82;;;;;;;;;;6265139;28;24430;-82
2024/02/15 06:51:54;;;;;;;20.30;13.67;;;;;;;;;;6265476;28;24435;-82
2024/02/15 06:54:55;;;;;;;19.08;12.63;;;;;;;;;;6265046;28;24424;-81
2024/02/15 06:57:57;;;;;;;19.00;13.13;;;;;;;;;;6267787;28;24424;-82
2024/02/15 07:01:00;;;;;;;21.00;14.00;;;;;;;;;;6269353;28;24465;-82
2024/02/15 07:04:03;;;;;;;19.92;13.63;;;;;;;;;;6264883;28;24872;-82
2024/02/15 07:07:04;;;;;;;19.90;13.63;;;;;;;;;;6265668;28;24427;-82
2024/02/15 07:10:06;;;;;;;21.63;14.02;;;;;;;;;;6265657;28;24435;-82
2024/02/15 07:13:07;;;;;;;20.95;14.30;;;;;;;;;;6266888;28;24426;-84
2024/02/15 07:16:11;;;;;;;22.63;14.90;;;;;;;;;;6265427;28;24439;-82
2024/02/15 07:19:13;;;;;;;21.60;14.68;;;;;;;;;;6268593;28;24521;-82
2024/02/15 07:22:14;;;;;;;22.95;14.23;;;;;;;;;;6267440;28;24474;-85
2024/02/15 07:25:16;;;;;;;23.17;14.35;;;;;;;;;;6265937;28;24463;-82
2024/02/15 07:28:17;;;;;;;23.75;14.15;;;;;;;;;;6267778;28;24489;-83
2024/02/15 07:31:21;;;;;;;20.48;13.77;;;;;;;;;;6266000;28;24495;-82
2024/02/15 07:34:22;;;;;;;22.08;14.38;;;;;;;;;;6266141;28;25075;-82
2024/02/15 07:37:25;;;;;;;22.03;14.77;;;;;;;;;;6264228;28;24475;-82
2024/02/15 07:40:28;;;;;;;21.95;14.40;;;;;;;;;;6267064;28;24438;-83
2024/02/15 07:43:29;;;;;;;22.65;15.15;;;;;;;;;;6264246;28;24418;-83
2024/02/15 07:46:34;;;;;;;23.33;15.35;;;;;;;;;;6265629;28;24426;-82
2024/02/15 07:49:36;;;;;;;23.02;15.65;;;;;;;;;;6267101;28;24420;-82
2024/02/15 07:52:37;;;;;;;28.15;18.50;;;;;;;;;;6265304;28;24470;-82
2024/02/15 07:55:39;;;;;;;25.75;17.55;;;;;;;;;;6263724;28;24434;-81
2024/02/15 07:58:42;;;;;;;24.88;16.55;;;;;;;;;;6268158;28;24783;-83
2024/02/15 08:01:47;;;;;;;23.30;16.15;;;;;;;;;;6266066;28;24442;-83
2024/02/15 08:04:48;;;;;;;24.58;16.10;;;;;;;;;;6265461;28;24795;-82
2024/02/15 08:07:50;;;;;;;23.20;16.30;;;;;;;;;;6265080;28;24906;-83
2024/02/15 08:10:52;;;;;;;24.93;16.53;;;;;;;;;;6264433;28;24616;-82
2024/02/15 08:13:56;;;;;;;25.70;16.98;;;;;;;;;;6267035;28;24432;-83
2024/02/15 08:16:59;;;;;;;24.85;16.65;;;;;;;;;;6265220;28;24634;-82
2024/02/15 08:20:00;;;;;;;24.05;16.55;;;;;;;;;;6262762;28;24423;-83
2024/02/15 08:23:02;;;;;;;23.65;16.25;;;;;;;;;;6264721;28;24483;-82
2024/02/15 08:26:03;;;;;;;25.17;17.27;;;;;;;;;;6268230;28;24486;-83
2024/02/15 08:29:05;;;;;;;26.55;18.55;;;;;;;;;;6267137;28;24488;-82
2024/02/15 08:32:08;;;;;;;32.15;21.30;;;;;;;;;;6262026;28;24479;-82
2024/02/15 08:35:10;;;;;;;28.63;19.98;;;;;;;;;;6263821;28;24438;-82
2024/02/15 08:38:15;;;;;;;30.05;18.45;;;;;;;;;;6263983;28;24853;-83
2024/02/15 08:41:18;;;;;;;25.38;17.17;;;;;;;;;;6263216;28;24635;-84
2024/02/15 08:44:21;;;;;;;23.55;16.15;;;;;;;;;;6263394;28;24430;-82
2024/02/15 08:47:24;;;;;;;24.08;16.30;;;;;;;;;;6266958;28;24418;-84
2024/02/15 08:50:25;;;;;;;21.45;16.27;;;;;;;;;;6265103;28;24438;-83
2024/02/15 08:53:27;;;;;;;21.65;15.85;;;;;;;;;;6266617;28;24418;-81
2024/02/15 08:56:28;;;;;;;25.35;16.30;;;;;;;;;;6264587;28;24422;-83
2024/02/15 08:59:30;;;;;;;24.88;16.35;;;;;;;;;;6269062;28;24466;-82
2024/02/15 09:02:33;;;;;;;22.48;15.48;;;;;;;;;;6270220;28;24619;-82
2024/02/15 09:05:34;;;;;;;21.05;15.45;;;;;;;;;;6272154;28;24818;-83
2024/02/15 09:08:36;;;;;;;21.45;15.88;;;;;;;;;;6269195;28;24416;-82
2024/02/15 09:11:37;;;;;;;22.63;16.80;;;;;;;;;;6266673;28;24484;-82
2024/02/15 09:14:39;;;;;;;22.88;16.73;;;;;;;;;;6270360;28;24434;-83
2024/02/15 09:17:43;;;;;;;22.42;17.17;;;;;;;;;;6271616;28;24595;-81
2024/02/15 09:20:45;;;;;;;23.20;16.98;;;;;;;;;;6269297;28;24481;-82
2024/02/15 09:23:48;;;;;;;24.10;17.30;;;;;;;;;;6271710;28;24908;-83
2024/02/15 09:26:50;;;;;;;25.83;18.00;;;;;;;;;;6270066;28;24855;-81
2024/02/15 09:29:51;;;;;;;25.67;17.90;;;;;;;;;;6268665;28;24616;-82
2024/02/15 09:32:54;;;;;;;24.30;17.30;;;;;;;;;;6267251;28;24495;-83
2024/02/15 09:35:55;;;;;;;22.67;17.35;;;;;;;;;;6270346;28;24434;-82
2024/02/15 09:38:58;;;;;;;22.23;17.02;;;;;;;;;;6266732;28;24674;-83
2024/02/15 09:42:00;;;;;;;25.42;18.02;;;;;;;;;;6269987;28;24427;-83
2024/02/15 09:45:02;;;;;;;25.55;18.40;;;;;;;;;;6267829;28;24435;-83
2024/02/15 09:48:08;;;;;;;25.80;19.13;;;;;;;;;;6269695;28;24845;-82
2024/02/15 09:51:09;;;;;;;26.33;18.70;;;;;;;;;;6268171;28;24807;-83
2024/02/15 09:54:13;;;;;;;28.10;19.48;;;;;;;;;;6270040;28;24427;-82
2024/02/15 09:57:14;;;;;;;24.63;18.67;;;;;;;;;;6270041;28;24563;-84
2024/02/15 10:00:16;;;;;;;24.70;18.20;;;;;;;;;;6267027;28;24424;-83
2024/02/15 10:03:21;;;;;;;23.70;18.27;;;;;;;;;;6268190;28;24427;-82
2024/02/15 10:06:22;;;;;;;29.70;20.95;;;;;;;;;;6267524;28;24686;-82
2024/02/15 10:09:25;;;;;;;27.83;18.42;;;;;;;;;;6266595;28;24620;-83
2024/02/15 10:12:37;;;;;;;23.17;17.80;;;;;;;;;;6268201;28;24469;-80
2024/02/15 10:15:40;;;;;;;23.48;16.80;;;;;;;;;;6268517;28;24826;-84
2024/02/15 10:18:43;;;;;;;21.85;17.42;;;;;;;;;;6267068;28;24458;-84
2024/02/15 10:21:45;;;;;;;23.77;17.83;;;;;;;;;;6265936;28;24728;-80
2024/02/15 10:24:47;;;;;;;25.10;18.85;;;;;;;;;;6267674;28;24436;-81
2024/02/15 10:27:48;;;;;;;23.43;17.67;;;;;;;;;;6266853;28;24438;-83
2024/02/15 10:30:52;;;;;;;25.50;18.08;;;;;;;;;;6267768;28;24415;-83
2024/02/15 10:34:00;;;;;;;22.65;17.35;;;;;;;;;;6264496;28;24811;-82
2024/02/15 10:37:12;;;;;;;22.23;16.73;;;;;;;;;;6267667;28;24433;-85
2024/02/15 10:40:13;;;;;;;25.05;18.15;;;;;;;;;;6267913;28;24490;-84
2024/02/15 10:43:16;;;;;;;25.02;18.92;;;;;;;;;;6264589;28;24461;-84
2024/02/15 10:46:19;;;;;;;25.07;17.83;;;;;;;;;;6265357;28;24427;-80
2024/02/15 10:49:22;;;;;;;26.40;18.73;;;;;;;;;;6267005;28;24818;-83
2024/02/15 10:52:24;;;;;;;27.38;21.52;;;;;;;;;;6264640;28;24431;-81
2024/02/15 10:55:33;;;;;;;29.10;20.83;;;;;;;;;;6264432;28;24432;-81
2024/02/15 10:58:38;;;;;;;28.13;21.38;;;;;;;;;;6265101;28;24844;-83
2024/02/15 11:01:40;;;;;;;26.88;20.30;;;;;;;;;;6265891;28;24412;-84
2024/02/15 11:04:43;;;;;;;26.95;20.50;;;;;;;;;;6264739;28;24717;-84
2024/02/15 11:07:45;;;;;;;27.00;20.50;;;;;;;;;;6267435;28;24630;-82
2024/02/15 11:10:47;;;;;;;30.60;21.17;;;;;;;;;;6268284;28;24453;-83
2024/02/15 11:13:49;;;;;;;30.40;21.35;;;;;;;;;;6268315;28;24417;-83
2024/02/15 11:16:51;;;;;;;32.97;24.88;;;;;;;;;;6267770;28;24427;-82
2024/02/15 11:19:53;;;;;;;35.30;25.55;;;;;;;;;;6265774;28;24420;-81
2024/02/15 11:22:57;;;;;;;30.52;23.40;;;;;;;;;;6268330;28;24523;-81
2024/02/15 11:26:00;;;;;;;29.80;21.73;;;;;;;;;;6266865;28;24824;-83
2024/02/15 11:29:03;;;;;;;29.25;21.65;;;;;;;;;;6266400;28;24860;-83
2024/02/15 11:32:05;;;;;;;29.67;21.50;;;;;;;;;;6261692;28;24886;-83
2024/02/15 11:35:14;;;;;;;31.27;22.40;;;;;;;;;;6266273;28;24873;-83
2024/02/15 11:38:28;;;;;;;31.25;22.48;;;;;;;;;;6266479;28;24482;-82
2024/02/15 11:41:30;;;;;;;31.50;21.83;;;;;;;;;;6264166;28;24430;-83
2024/02/15 11:44:32;;;;;;;32.58;22.98;;;;;;;;;;6263854;28;24415;-81
2024/02/15 11:47:33;;;;;;;29.13;21.58;;;;;;;;;;6264263;28;24807;-83
2024/02/15 11:50:37;;;;;;;29.65;22.08;;;;;;;;;;6267720;28;24647;-82
2024/02/15 11:53:39;;;;;;;30.65;23.10;;;;;;;;;;6265190;28;24470;-83
2024/02/15 11:56:54;;;;;;;35.77;26.23;;;;;;;;;;6265488;28;25083;-84
2024/02/15 12:18:38;;;;;;;31.23;23.33;;;;;;;;;;6264383;28;24424;-84
2024/02/15 12:19:57;;;;;;;35.20;23.58;;;;;;;;;;6264756;28;24476;-82
2024/02/15 12:23:00;;;;;;;32.53;22.73;;;;;;;;;;6265163;28;24486;-82
2024/02/15 12:26:03;;;;;;;30.85;22.38;;;;;;;;;;6261827;28;24454;-83
2024/02/15 12:29:06;;;;;;;32.13;23.63;;;;;;;;;;6263289;28;24495;-82
2024/02/15 12:32:07;;;;;;;30.30;22.98;;;;;;;;;;6263435;28;24646;-83
2024/02/15 12:35:15;;;;;;;31.35;22.80;;;;;;;;;;6262855;28;24807;-83
2024/02/15 12:38:18;;;;;;;28.88;21.63;;;;;;;;;;6263427;28;24683;-84
2024/02/15 12:41:20;;;;;;;29.08;22.15;;;;;;;;;;6262415;28;24438;-81
2024/02/15 12:44:22;;;;;;;27.92;21.45;;;;;;;;;;6261573;28;24495;-82
2024/02/15 12:47:24;;;;;;;29.27;21.90;;;;;;;;;;6264506;28;24860;-82
2024/02/15 12:50:28;;;;;;;29.70;22.23;;;;;;;;;;6264145;28;24415;-83
2024/02/15 12:53:31;;;;;;;30.37;22.30;;;;;;;;;;6261547;28;24663;-84
2024/02/15 12:56:33;;;;;;;31.58;23.25;;;;;;;;;;6261984;28;24420;-80
2024/02/15 12:59:34;;;;;;;32.10;24.05;;;;;;;;;;6264829;28;24427;-83
2024/02/15 13:02:36;;;;;;;30.70;22.80;;;;;;;;;;6264244;28;24427;-83
2024/02/15 13:05:37;;;;;;;29.25;22.30;;;;;;;;;;6266520;28;24445;-82
2024/02/15 13:08:40;;;;;;;31.67;22.52;;;;;;;;;;6265233;28;24419;-82
2024/02/15 13:11:45;;;;;;;36.47;27.65;;;;;;;;;;6264024;28;24462;-83
2024/02/15 13:14:46;;;;;;;32.60;25.17;;;;;;;;;;6267453;28;24866;-82
2024/02/15 13:17:50;;;;;;;31.70;25.30;;;;;;;;;;6266137;28;24624;-82
2024/02/15 13:20:52;;;;;;;34.22;26.45;;;;;;;;;;6263878;28;24462;-83
2024/02/15 13:23:55;;;;;;;33.17;25.25;;;;;;;;;;6266584;28;24469;-79
2024/02/15 13:26:57;;;;;;;32.22;25.55;;;;;;;;;;6265108;28;24419;-82
2024/02/15 13:29:58;;;;;;;35.40;26.33;;;;;;;;;;6265020;28;24463;-82
2024/02/15 13:33:01;;;;;;;35.38;26.10;;;;;;;;;;6262890;28;24426;-82
2024/02/15 13:36:02;;;;;;;34.88;26.50;;;;;;;;;;6264762;28;24895;-83
2024/02/15 13:39:05;;;;;;;38.50;28.77;;;;;;;;;;6266142;28;24493;-82
2024/02/15 13:42:07;;;;;;;36.17;26.60;;;;;;;;;;6266888;28;24807;-82
2024/02/15 13:45:13;;;;;;;35.53;26.75;;;;;;;;;;6269943;28;24423;-81
2024/02/15 13:48:16;;;;;;;33.37;25.93;;;;;;;;;;6269866;28;24459;-83
2024/02/15 13:51:17;;;;;;;33.17;24.05;;;;;;;;;;6270318;28;24427;-81
2024/02/15 13:54:22;;;;;;;32.80;24.73;;;;;;;;;;6269102;28;25270;-82
2024/02/15 13:57:24;;;;;;;32.28;25.08;;;;;;;;;;6266244;28;24661;-82
2024/02/15 14:00:29;;;;;;;30.38;22.25;;;;;;;;;;6265502;28;25130;-80
2024/02/15 14:03:31;;;;;;;29.60;21.30;;;;;;;;;;6263928;28;24427;-83
2024/02/15 14:06:33;;;;;;;31.02;23.98;;;;;;;;;;6265689;28;24430;-84
2024/02/15 14:09:36;;;;;;;59.95;39.13;;;;;;;;;;6272040;28;24423;-82
2024/02/15 14:12:39;;;;;;;49.33;33.67;;;;;;;;;;6268180;28;24489;-83
2024/02/15 14:15:40;;;;;;;53.60;34.63;;;;;;;;;;6268981;28;24427;-85
2024/02/15 14:18:44;;;;;;;48.30;32.90;;;;;;;;;;6269514;28;24415;-84
2024/02/15 14:21:47;;;;;;;51.88;35.38;;;;;;;;;;6271609;28;24466;-84
2024/02/15 14:24:50;;;;;;;83.93;53.30;;;;;;;;;;6271851;28;24957;-86
2024/02/15 14:27:52;;;;;;;59.20;40.13;;;;;;;;;;6267950;28;24864;-83
2024/02/15 14:34:12;;;;;;;36.70;26.92;;;;;;;;;;6269363;28;24403;-82
2024/02/15 14:37:14;;;;;;;37.20;26.30;;;;;;;;;;6269117;28;24499;-81
2024/02/15 14:40:17;;;;;;;31.58;24.02;;;;;;;;;;6268803;28;24535;-81
2024/02/15 14:43:20;;;;;;;34.72;24.75;;;;;;;;;;6267224;28;24490;-81
2024/02/15 14:46:22;;;;;;;34.28;23.88;;;;;;;;;;6268713;28;24443;-81
2024/02/15 14:49:23;;;;;;;31.35;22.80;;;;;;;;;;6269861;28;24655;-84
2024/02/15 14:52:26;;;;;;;30.70;22.00;;;;;;;;;;6266617;28;24474;-81
2024/02/15 14:55:30;;;;;;;33.80;23.33;;;;;;;;;;6268611;28;24477;-82
2024/02/15 14:58:32;;;;;;;37.38;24.10;;;;;;;;;;6267037;28;24427;-82
2024/02/15 15:01:35;;;;;;;31.63;22.52;;;;;;;;;;6268412;28;24423;-83
2024/02/15 15:04:57;;;;;;;34.40;23.77;;;;;;;;;;6266481;28;24680;-84
2024/02/15 15:14:37;;;;;;;31.17;21.30;;;;;;;;;;6268290;28;24424;-82
2024/02/15 15:17:39;;;;;;;35.25;23.75;;;;;;;;;;6266113;28;24465;-82
2024/02/15 15:20:41;;;;;;;29.75;19.73;;;;;;;;;;6265649;28;24656;-83
2024/02/15 15:23:43;;;;;;;27.60;19.58;;;;;;;;;;6265121;28;24640;-80
2024/02/15 15:26:46;;;;;;;26.08;17.17;;;;;;;;;;6267745;28;24422;-81
2024/02/15 15:29:47;;;;;;;32.55;18.33;;;;;;;;;;6265966;28;24423;-82
2024/02/15 15:32:49;;;;;;;29.70;18.60;;;;;;;;;;6264724;28;24420;-82
2024/02/15 15:35:51;;;;;;;26.77;18.35;;;;;;;;;;6264985;28;24442;-82
2024/02/15 15:38:53;;;;;;;27.45;17.88;;;;;;;;;;6263996;28;24443;-81
2024/02/15 15:41:56;;;;;;;38.27;23.27;;;;;;;;;;6266594;28;25075;-83
2024/02/15 15:44:57;;;;;;;69.90;42.47;;;;;;;;;;6263816;28;24442;-82
2024/02/15 15:48:00;;;;;;;40.07;25.10;;;;;;;;;;6265937;28;24926;-82
2024/02/15 15:51:04;;;;;;;42.77;26.17;;;;;;;;;;6266952;28;24447;-82
2024/02/15 15:54:06;;;;;;;55.15;31.30;;;;;;;;;;6265702;28;24422;-82
2024/02/15 15:57:09;;;;;;;58.00;32.55;;;;;;;;;;6266322;28;24892;-82
2024/02/15 16:00:12;;;;;;;54.60;32.83;;;;;;;;;;6264144;28;24430;-81
2024/02/15 16:03:14;;;;;;;35.63;22.38;;;;;;;;;;6265349;28;24553;-81
2024/02/15 16:06:15;;;;;;;32.05;20.65;;;;;;;;;;6264745;28;24431;-83
2024/02/15 16:09:17;;;;;;;31.83;20.27;;;;;;;;;;6266882;28;24667;-82
2024/02/15 16:12:21;;;;;;;31.67;19.08;;;;;;;;;;6264340;28;24620;-82
2024/02/15 16:15:22;;;;;;;31.42;20.17;;;;;;;;;;6262301;28;24428;-83
2024/02/15 16:18:24;;;;;;;30.00;20.77;;;;;;;;;;6265486;28;24436;-82
2024/02/15 16:21:25;;;;;;;31.57;20.23;;;;;;;;;;6264570;28;24508;-82
2024/02/15 16:24:27;;;;;;;31.50;20.02;;;;;;;;;;6266391;28;24833;-81
2024/02/15 16:27:29;;;;;;;32.33;19.45;;;;;;;;;;6265280;28;24470;-82
2024/02/15 16:30:32;;;;;;;31.42;20.63;;;;;;;;;;6264337;28;24426;-82
2024/02/15 16:33:34;;;;;;;31.33;20.55;;;;;;;;;;6264906;28;24469;-83
2024/02/15 16:36:36;;;;;;;34.38;20.75;;;;;;;;;;6265834;28;24428;-82
2024/02/15 16:39:38;;;;;;;34.50;21.45;;;;;;;;;;6262106;28;24427;-83
2024/02/15 16:42:44;;;;;;;28.03;19.90;;;;;;;;;;6266370;28;24466;-81
2024/02/15 16:45:47;;;;;;;29.92;20.05;;;;;;;;;;6263686;28;24420;-83
2024/02/15 16:48:48;;;;;;;34.03;22.30;;;;;;;;;;6264597;28;24479;-82
2024/02/15 16:51:50;;;;;;;30.38;21.65;;;;;;;;;;6265715;28;24420;-82
2024/02/15 16:54:51;;;;;;;31.60;20.85;;;;;;;;;;6263130;28;25612;-82
2024/02/15 16:58:00;;;;;;;31.48;21.10;;;;;;;;;;6265095;28;24691;-82
2024/02/15 17:01:02;;;;;;;33.35;21.40;;;;;;;;;;6263736;28;24459;-81
2024/02/15 17:04:06;;;;;;;32.67;21.17;;;;;;;;;;6263626;28;24463;-82
2024/02/15 17:07:07;;;;;;;31.87;21.67;;;;;;;;;;6263610;28;24862;-82
2024/02/15 17:10:09;;;;;;;32.35;21.20;;;;;;;;;;6267049;28;24431;-82
2024/02/15 17:13:12;;;;;;;33.70;22.27;;;;;;;;;;6267234;28;24833;-82
2024/02/15 17:16:14;;;;;;;33.25;22.35;;;;;;;;;;6262446;28;24431;-82
2024/02/15 17:19:15;;;;;;;31.88;22.63;;;;;;;;;;6270028;28;24427;-82
2024/02/15 17:22:17;;;;;;;34.70;23.20;;;;;;;;;;6271096;28;24450;-83
2024/02/15 17:25:19;;;;;;;35.08;22.83;;;;;;;;;;6270296;28;24431;-83
2024/02/15 17:28:22;;;;;;;32.75;22.42;;;;;;;;;;6269466;28;24461;-83
2024/02/15 17:31:24;;;;;;;55.10;37.33;;;;;;;;;;6268657;28;24853;-85
2024/02/15 17:34:26;;;;;;;88.53;56.40;;;;;;;;;;6267126;28;24619;-82
2024/02/15 17:37:27;;;;;;;52.90;36.17;;;;;;;;;;6270126;28;24416;-83
2024/02/15 17:40:29;;;;;;;40.03;27.48;;;;;;;;;;6267922;28;24829;-81
2024/02/15 17:43:32;;;;;;;35.38;24.75;;;;;;;;;;6267594;28;24446;-82
2024/02/15 17:46:33;;;;;;;33.17;23.30;;;;;;;;;;6267076;28;24459;-83
2024/02/15 17:49:35;;;;;;;30.67;22.30;;;;;;;;;;6270666;28;24419;-83
2024/02/15 17:52:36;;;;;;;31.60;22.52;;;;;;;;;;6265021;28;24411;-84
2024/02/15 17:55:38;;;;;;;32.08;21.98;;;;;;;;;;6268025;28;24414;-83
2024/02/15 17:58:41;;;;;;;35.17;24.35;;;;;;;;;;6268175;28;24411;-82
2024/02/15 18:01:43;;;;;;;34.53;23.77;;;;;;;;;;6265568;28;24509;-82
2024/02/15 18:04:44;;;;;;;34.33;23.02;;;;;;;;;;6268538;28;24418;-81
2024/02/15 18:07:48;;;;;;;31.53;23.23;;;;;;;;;;6258604;28;24424;-84
2024/02/15 18:10:49;;;;;;;32.63;23.05;;;;;;;;;;6269992;28;24422;-82
2024/02/15 18:13:52;;;;;;;38.40;26.20;;;;;;;;;;6268376;28;24437;-81
2024/02/15 18:16:54;;;;;;;38.22;26.77;;;;;;;;;;6267006;28;24416;-81